Terminal Aerodrome Forecast
Issued by NWS

Home | Current Version | Previous Version | Text Only | Print | Product List | Glossary On
Versions: 1 2 3 4 5 6 7 8 9 10 11 12 13 14 15 16 17 18 19 20 21 22 23 24 25 26 27 28
782
FTUS44 KBMX 212340
TAFEET
TAF
KEET 212340Z 2200/2224 17005KT P6SM SCT025
      TEMPO 2200/2203 BKN025
     FM220300 14003KT P6SM OVC025
     FM220500 15005KT 4SM TSRA BR SCT008 BKN035CB
     FM221700 20010G15KT 5SM -TSRA BR OVC035CB
     FM222000 24012G18KT P6SM -RA OVC040=

USA.gov is the U.S. government's official web portal to all federal, state and local government web resources and services.